sensor_id;sensor_type;location;lat;lon;timestamp;pressure;altitude;pressure_sealevel;temperature;humidity
44075;BME280;60448;44.956;7.660;2023-04-30T00:00:00;98510;;;23.8;49.5
44075;BME280;60448;44.956;7.660;2023-04-30T00:05:00;98510;;;23.8;49.5
44075;BME280;60448;44.956;7.660;2023-04-30T00:10:00;98510;;;23.8;49.6
44075;BME280;60448;44.956;7.660;2023-04-30T00:15:00;98510;;;23.8;49.6
44075;BME280;60448;44.956;7.660;2023-04-30T00:20:00;98510;;;23.8;49.6
44075;BME280;60448;44.956;7.660;2023-04-30T00:25:00;98520;;;23.7;50.0
44075;BME280;60448;44.956;7.660;2023-04-30T00:30:00;98520;;;23.7;50.1
44075;BME280;60448;44.956;7.660;2023-04-30T00:35:00;98520;;;23.7;50.1
44075;BME280;60448;44.956;7.660;2023-04-30T00:40:00;98520;;;23.7;50.1
44075;BME280;60448;44.956;7.660;2023-04-30T00:45:00;98530;;;23.7;49.8
44075;BME280;60448;44.956;7.660;2023-04-30T00:50:00;98530;;;23.7;49.8
44075;BME280;60448;44.956;7.660;2023-04-30T00:55:00;98530;;;23.7;49.8
44075;BME280;60448;44.956;7.660;2023-04-30T01:00:00;98510;;;23.6;50.0
44075;BME280;60448;44.956;7.660;2023-04-30T01:05:01;98510;;;23.6;50.0
44075;BME280;60448;44.956;7.660;2023-04-30T01:10:00;98510;;;23.6;50.0
44075;BME280;60448;44.956;7.660;2023-04-30T01:15:07;98510;;;23.6;50.2
44075;BME280;60448;44.956;7.660;2023-04-30T01:20:00;98510;;;23.6;50.3
44075;BME280;60448;44.956;7.660;2023-04-30T01:30:00;98510;;;23.6;50.3
44075;BME280;60448;44.956;7.660;2023-04-30T01:35:00;98510;;;23.6;50.2
44075;BME280;60448;44.956;7.660;2023-04-30T01:40:07;98510;;;23.6;50.3
44075;BME280;60448;44.956;7.660;2023-04-30T01:50:07;98510;;;23.6;50.4
44075;BME280;60448;44.956;7.660;2023-04-30T01:55:04;98520;;;23.6;49.6
44075;BME280;60448;44.956;7.660;2023-04-30T02:00:00;98520;;;23.5;49.8
44075;BME280;60448;44.956;7.660;2023-04-30T02:05:00;98520;;;23.5;49.8
44075;BME280;60448;44.956;7.660;2023-04-30T02:10:00;98510;;;23.6;49.6
44075;BME280;60448;44.956;7.660;2023-04-30T02:15:01;98510;;;23.5;49.7
44075;BME280;60448;44.956;7.660;2023-04-30T02:20:00;98510;;;23.5;49.7
44075;BME280;60448;44.956;7.660;2023-04-30T02:25:00;98510;;;23.5;49.7
44075;BME280;60448;44.956;7.660;2023-04-30T02:30:00;98510;;;23.5;49.7
44075;BME280;60448;44.956;7.660;2023-04-30T02:35:00;98510;;;23.5;49.7
44075;BME280;60448;44.956;7.660;2023-04-30T02:40:00;98520;;;23.5;49.7
44075;BME280;60448;44.956;7.660;2023-04-30T02:45:00;98520;;;23.5;49.7
44075;BME280;60448;44.956;7.660;2023-04-30T02:50:00;98520;;;23.5;49.7
44075;BME280;60448;44.956;7.660;2023-04-30T02:55:00;98510;;;23.5;49.7
44075;BME280;60448;44.956;7.660;2023-04-30T03:00:00;98510;;;23.4;49.7
44075;BME280;60448;44.956;7.660;2023-04-30T03:05:00;98510;;;23.4;49.7
44075;BME280;60448;44.956;7.660;2023-04-30T03:10:00;98520;;;23.5;49.7
44075;BME280;60448;44.956;7.660;2023-04-30T03:15:00;98510;;;23.4;49.8
44075;BME280;60448;44.956;7.660;2023-04-30T03:20:00;98510;;;23.4;49.8
44075;BME280;60448;44.956;7.660;2023-04-30T03:25:00;98510;;;23.4;49.8
44075;BME280;60448;44.956;7.660;2023-04-30T03:30:00;98520;;;23.4;49.7
44075;BME280;60448;44.956;7.660;2023-04-30T03:35:00;98520;;;23.4;49.7
44075;BME280;60448;44.956;7.660;2023-04-30T03:40:00;98520;;;23.4;49.7
44075;BME280;60448;44.956;7.660;2023-04-30T03:45:00;98510;;;23.4;49.7
44075;BME280;60448;44.956;7.660;2023-04-30T03:50:01;98510;;;23.4;49.7
44075;BME280;60448;44.956;7.660;2023-04-30T03:55:00;98510;;;23.4;49.7
44075;BME280;60448;44.956;7.660;2023-04-30T04:00:00;98530;;;23.3;50.0
44075;BME280;60448;44.956;7.660;2023-04-30T04:05:00;98530;;;23.3;50.0
44075;BME280;60448;44.956;7.660;2023-04-30T04:10:00;98530;;;23.3;50.0
44075;BME280;60448;44.956;7.660;2023-04-30T04:15:00;98540;;;23.3;50.2
44075;BME280;60448;44.956;7.660;2023-04-30T04:20:00;98540;;;23.3;50.2
44075;BME280;60448;44.956;7.660;2023-04-30T04:25:00;98540;;;23.3;50.2
44075;BME280;60448;44.956;7.660;2023-04-30T04:30:01;98540;;;23.3;50.2
44075;BME280;60448;44.956;7.660;2023-04-30T04:35:00;98540;;;23.3;50.2
44075;BME280;60448;44.956;7.660;2023-04-30T04:40:00;98540;;;23.3;50.2
44075;BME280;60448;44.956;7.660;2023-04-30T04:45:00;98540;;;23.3;50.2
44075;BME280;60448;44.956;7.660;2023-04-30T04:50:00;98550;;;23.5;49.9
44075;BME280;60448;44.956;7.660;2023-04-30T04:55:00;98550;;;23.5;49.9
44075;BME280;60448;44.956;7.660;2023-04-30T05:00:00;98550;;;23.5;49.9
44075;BME280;60448;44.956;7.660;2023-04-30T05:05:00;98550;;;23.2;50.4
44075;BME280;60448;44.956;7.660;2023-04-30T05:10:00;98550;;;23.2;50.4
44075;BME280;60448;44.956;7.660;2023-04-30T05:15:00;98550;;;23.2;50.4
44075;BME280;60448;44.956;7.660;2023-04-30T05:20:00;98570;;;23.2;50.6
44075;BME280;60448;44.956;7.660;2023-04-30T05:25:00;98570;;;23.2;50.6
44075;BME280;60448;44.956;7.660;2023-04-30T05:30:00;98570;;;23.2;50.6
44075;BME280;60448;44.956;7.660;2023-04-30T05:35:00;98570;;;23.2;50.8
44075;BME280;60448;44.956;7.660;2023-04-30T05:40:00;98570;;;23.2;50.8
44075;BME280;60448;44.956;7.660;2023-04-30T05:45:00;98570;;;23.2;50.8
44075;BME280;60448;44.956;7.660;2023-04-30T05:50:00;98570;;;23.1;51.0
44075;BME280;60448;44.956;7.660;2023-04-30T05:55:00;98570;;;23.1;51.0
44075;BME280;60448;44.956;7.660;2023-04-30T06:00:00;98570;;;23.1;51.0
44075;BME280;60448;44.956;7.660;2023-04-30T06:05:00;98570;;;23.2;50.9
44075;BME280;60448;44.956;7.660;2023-04-30T06:10:00;98570;;;23.1;51.0
44075;BME280;60448;44.956;7.660;2023-04-30T06:15:00;98570;;;23.1;51.0
44075;BME280;60448;44.956;7.660;2023-04-30T06:20:00;98570;;;23.1;51.0
44075;BME280;60448;44.956;7.660;2023-04-30T06:25:00;98580;;;23.1;51.2
44075;BME280;60448;44.956;7.660;2023-04-30T06:30:00;98580;;;23.1;51.2
44075;BME280;60448;44.956;7.660;2023-04-30T06:35:00;98580;;;23.1;51.2
44075;BME280;60448;44.956;7.660;2023-04-30T06:40:00;98590;;;23.0;51.3
44075;BME280;60448;44.956;7.660;2023-04-30T06:45:01;98590;;;23.0;51.3
44075;BME280;60448;44.956;7.660;2023-04-30T06:50:01;98590;;;23.0;51.3
44075;BME280;60448;44.956;7.660;2023-04-30T06:55:00;98600;;;23.0;51.4
44075;BME280;60448;44.956;7.660;2023-04-30T07:00:00;98600;;;23.0;51.4
44075;BME280;60448;44.956;7.660;2023-04-30T07:05:00;98600;;;23.0;51.4
44075;BME280;60448;44.956;7.660;2023-04-30T07:10:00;98610;;;23.0;51.5
44075;BME280;60448;44.956;7.660;2023-04-30T07:15:00;98610;;;23.0;51.5
44075;BME280;60448;44.956;7.660;2023-04-30T07:20:00;98610;;;23.0;51.5
44075;BME280;60448;44.956;7.660;2023-04-30T07:25:00;98620;;;23.0;51.5
44075;BME280;60448;44.956;7.660;2023-04-30T07:30:00;98620;;;23.0;51.6
44075;BME280;60448;44.956;7.660;2023-04-30T07:35:00;98620;;;23.0;51.6
44075;BME280;60448;44.956;7.660;2023-04-30T07:40:00;98620;;;23.0;51.6
44075;BME280;60448;44.956;7.660;2023-04-30T07:45:00;98630;;;22.9;51.6
44075;BME280;60448;44.956;7.660;2023-04-30T07:50:00;98630;;;22.9;51.6
44075;BME280;60448;44.956;7.660;2023-04-30T07:55:00;98630;;;22.9;51.6
44075;BME280;60448;44.956;7.660;2023-04-30T08:00:00;98650;;;22.9;51.6
44075;BME280;60448;44.956;7.660;2023-04-30T08:05:00;98650;;;22.9;51.6
44075;BME280;60448;44.956;7.660;2023-04-30T08:10:00;98650;;;22.9;51.6
44075;BME280;60448;44.956;7.660;2023-04-30T08:15:01;98660;;;22.9;51.6
44075;BME280;60448;44.956;7.660;2023-04-30T08:20:01;98660;;;22.9;51.6
44075;BME280;60448;44.956;7.660;2023-04-30T08:25:00;98660;;;22.9;51.6
44075;BME280;60448;44.956;7.660;2023-04-30T08:30:00;98670;;;22.9;51.5
44075;BME280;60448;44.956;7.660;2023-04-30T08:35:01;98670;;;22.9;51.5
44075;BME280;60448;44.956;7.660;2023-04-30T08:40:00;98670;;;22.9;51.5
44075;BME280;60448;44.956;7.660;2023-04-30T08:45:00;98690;;;23.0;51.3
44075;BME280;60448;44.956;7.660;2023-04-30T08:50:00;98690;;;22.9;51.6
44075;BME280;60448;44.956;7.660;2023-04-30T08:55:00;98690;;;22.9;51.6
44075;BME280;60448;44.956;7.660;2023-04-30T09:00:00;98700;;;23.0;51.5
44075;BME280;60448;44.956;7.660;2023-04-30T09:05:00;98700;;;22.9;51.7
44075;BME280;60448;44.956;7.660;2023-04-30T09:10:00;98700;;;22.9;51.7
44075;BME280;60448;44.956;7.660;2023-04-30T09:15:01;98710;;;22.9;51.8
44075;BME280;60448;44.956;7.660;2023-04-30T09:20:15;98710;;;22.8;51.9
44075;BME280;60448;44.956;7.660;2023-04-30T09:25:00;98710;;;22.8;51.9
44075;BME280;60448;44.956;7.660;2023-04-30T09:30:00;98710;;;22.8;51.9
44075;BME280;60448;44.956;7.660;2023-04-30T09:35:00;98710;;;22.8;52.0
44075;BME280;60448;44.956;7.660;2023-04-30T09:40:00;98710;;;22.8;52.0
44075;BME280;60448;44.956;7.660;2023-04-30T09:45:00;98710;;;22.8;52.0
44075;BME280;60448;44.956;7.660;2023-04-30T09:50:00;98710;;;22.7;51.9
44075;BME280;60448;44.956;7.660;2023-04-30T09:55:00;98710;;;22.7;51.9
44075;BME280;60448;44.956;7.660;2023-04-30T10:00:00;98710;;;22.7;51.9
44075;BME280;60448;44.956;7.660;2023-04-30T10:05:00;98710;;;22.7;52.0
44075;BME280;60448;44.956;7.660;2023-04-30T10:10:08;98710;;;22.7;52.0
44075;BME280;60448;44.956;7.660;2023-04-30T10:15:05;98710;;;22.7;52.0
44075;BME280;60448;44.956;7.660;2023-04-30T10:20:01;98700;;;22.7;52.1
44075;BME280;60448;44.956;7.660;2023-04-30T10:25:01;98700;;;22.7;52.1
44075;BME280;60448;44.956;7.660;2023-04-30T10:30:00;98700;;;22.7;52.1
44075;BME280;60448;44.956;7.660;2023-04-30T10:35:07;98690;;;22.7;52.4
44075;BME280;60448;44.956;7.660;2023-04-30T10:40:00;98690;;;22.7;52.4
44075;BME280;60448;44.956;7.660;2023-04-30T10:45:01;98690;;;22.7;52.4
44075;BME280;60448;44.956;7.660;2023-04-30T10:50:02;98680;;;22.7;52.4
44075;BME280;60448;44.956;7.660;2023-04-30T10:55:05;98680;;;22.7;52.5
44075;BME280;60448;44.956;7.660;2023-04-30T11:05:09;98680;;;22.7;52.5
44075;BME280;60448;44.956;7.660;2023-04-30T11:10:00;98670;;;22.7;52.7
44075;BME280;60448;44.956;7.660;2023-04-30T11:15:06;98670;;;22.7;52.7
44075;BME280;60448;44.956;7.660;2023-04-30T11:20:00;98670;;;22.7;52.7
44075;BME280;60448;44.956;7.660;2023-04-30T11:25:03;98660;;;22.6;52.7
44075;BME280;60448;44.956;7.660;2023-04-30T11:30:01;98660;;;22.6;52.7
44075;BME280;60448;44.956;7.660;2023-04-30T11:35:04;98660;;;22.6;52.7
44075;BME280;60448;44.956;7.660;2023-04-30T11:40:02;98650;;;22.6;52.7
44075;BME280;60448;44.956;7.660;2023-04-30T11:45:02;98650;;;22.6;52.7
44075;BME280;60448;44.956;7.660;2023-04-30T11:50:00;98650;;;22.6;52.7
44075;BME280;60448;44.956;7.660;2023-04-30T11:55:03;98640;;;22.6;52.8
44075;BME280;60448;44.956;7.660;2023-04-30T12:00:16;98640;;;22.6;52.8
44075;BME280;60448;44.956;7.660;2023-04-30T12:05:00;98640;;;22.6;52.8
44075;BME280;60448;44.956;7.660;2023-04-30T12:10:00;98630;;;22.6;52.8
44075;BME280;60448;44.956;7.660;2023-04-30T12:15:09;98630;;;22.6;52.8
44075;BME280;60448;44.956;7.660;2023-04-30T12:20:00;98630;;;22.6;52.8
44075;BME280;60448;44.956;7.660;2023-04-30T12:25:04;98640;;;22.7;52.7
44075;BME280;60448;44.956;7.660;2023-04-30T12:30:02;98640;;;22.6;52.8
44075;BME280;60448;44.956;7.660;2023-04-30T12:35:00;98640;;;22.6;52.8
44075;BME280;60448;44.956;7.660;2023-04-30T12:40:00;98640;;;22.6;52.8
44075;BME280;60448;44.956;7.660;2023-04-30T12:45:00;98630;;;22.6;53.3
44075;BME280;60448;44.956;7.660;2023-04-30T12:50:00;98630;;;22.6;53.3
44075;BME280;60448;44.956;7.660;2023-04-30T13:00:00;98620;;;22.8;53.2
44075;BME280;60448;44.956;7.660;2023-04-30T13:05:00;98620;;;22.8;53.2
44075;BME280;60448;44.956;7.660;2023-04-30T13:10:00;98620;;;22.8;53.2
44075;BME280;60448;44.956;7.660;2023-04-30T13:15:00;98610;;;22.9;52.8
44075;BME280;60448;44.956;7.660;2023-04-30T13:20:00;98610;;;22.9;52.8
44075;BME280;60448;44.956;7.660;2023-04-30T13:25:00;98610;;;22.9;52.8
44075;BME280;60448;44.956;7.660;2023-04-30T13:30:01;98600;;;22.7;53.0
44075;BME280;60448;44.956;7.660;2023-04-30T13:35:00;98600;;;22.7;53.0
44075;BME280;60448;44.956;7.660;2023-04-30T13:40:00;98600;;;22.7;53.0
44075;BME280;60448;44.956;7.660;2023-04-30T13:45:00;98590;;;22.7;52.9
44075;BME280;60448;44.956;7.660;2023-04-30T13:50:01;98590;;;22.7;52.9
44075;BME280;60448;44.956;7.660;2023-04-30T13:55:00;98590;;;22.7;52.9
44075;BME280;60448;44.956;7.660;2023-04-30T14:00:00;98580;;;22.6;52.9
44075;BME280;60448;44.956;7.660;2023-04-30T14:05:01;98580;;;22.6;52.9
44075;BME280;60448;44.956;7.660;2023-04-30T14:10:00;98580;;;22.6;52.9
44075;BME280;60448;44.956;7.660;2023-04-30T14:15:00;98570;;;22.6;52.9
44075;BME280;60448;44.956;7.660;2023-04-30T14:20:00;98570;;;22.6;52.9
44075;BME280;60448;44.956;7.660;2023-04-30T14:25:00;98570;;;22.6;52.9
44075;BME280;60448;44.956;7.660;2023-04-30T14:30:00;98560;;;22.7;52.7
44075;BME280;60448;44.956;7.660;2023-04-30T14:35:00;98560;;;22.6;52.9
44075;BME280;60448;44.956;7.660;2023-04-30T14:40:00;98560;;;22.6;52.9
44075;BME280;60448;44.956;7.660;2023-04-30T14:45:00;98550;;;22.6;53.0
44075;BME280;60448;44.956;7.660;2023-04-30T14:50:00;98550;;;22.5;53.0
44075;BME280;60448;44.956;7.660;2023-04-30T14:55:00;98550;;;22.5;53.0
44075;BME280;60448;44.956;7.660;2023-04-30T15:00:00;98550;;;22.5;53.0
44075;BME280;60448;44.956;7.660;2023-04-30T15:05:02;98550;;;22.5;53.1
44075;BME280;60448;44.956;7.660;2023-04-30T15:10:00;98550;;;22.5;53.1
44075;BME280;60448;44.956;7.660;2023-04-30T15:15:01;98550;;;22.5;53.1
44075;BME280;60448;44.956;7.660;2023-04-30T15:20:00;98540;;;22.5;53.1
44075;BME280;60448;44.956;7.660;2023-04-30T15:25:00;98540;;;22.5;53.1
44075;BME280;60448;44.956;7.660;2023-04-30T15:30:00;98540;;;22.5;53.1
44075;BME280;60448;44.956;7.660;2023-04-30T15:35:00;98550;;;22.5;53.1
44075;BME280;60448;44.956;7.660;2023-04-30T15:40:00;98550;;;22.5;53.1
44075;BME280;60448;44.956;7.660;2023-04-30T15:45:00;98550;;;22.5;53.1
44075;BME280;60448;44.956;7.660;2023-04-30T15:50:00;98530;;;22.6;53.3
44075;BME280;60448;44.956;7.660;2023-04-30T15:55:00;98530;;;22.6;53.3
44075;BME280;60448;44.956;7.660;2023-04-30T16:00:00;98530;;;22.6;53.3
44075;BME280;60448;44.956;7.660;2023-04-30T16:05:00;98530;;;22.8;53.5
44075;BME280;60448;44.956;7.660;2023-04-30T16:10:00;98530;;;22.8;53.4
44075;BME280;60448;44.956;7.660;2023-04-30T16:15:02;98530;;;22.8;53.4
44075;BME280;60448;44.956;7.660;2023-04-30T16:20:00;98550;;;22.9;53.1
44075;BME280;60448;44.956;7.660;2023-04-30T16:25:00;98550;;;22.9;53.1
44075;BME280;60448;44.956;7.660;2023-04-30T16:30:00;98550;;;22.9;53.1
44075;BME280;60448;44.956;7.660;2023-04-30T16:35:00;98550;;;22.9;53.1
44075;BME280;60448;44.956;7.660;2023-04-30T16:40:00;98540;;;22.9;53.0
44075;BME280;60448;44.956;7.660;2023-04-30T16:45:00;98540;;;22.9;53.0
44075;BME280;60448;44.956;7.660;2023-04-30T16:50:00;98540;;;22.9;53.0
44075;BME280;60448;44.956;7.660;2023-04-30T16:55:00;98530;;;23.0;52.6
44075;BME280;60448;44.956;7.660;2023-04-30T17:00:00;98530;;;23.0;52.6
44075;BME280;60448;44.956;7.660;2023-04-30T17:05:00;98530;;;23.0;52.6
44075;BME280;60448;44.956;7.660;2023-04-30T17:10:00;98520;;;23.0;53.1
44075;BME280;60448;44.956;7.660;2023-04-30T17:15:00;98520;;;23.0;53.1
44075;BME280;60448;44.956;7.660;2023-04-30T17:20:00;98520;;;23.0;53.1
44075;BME280;60448;44.956;7.660;2023-04-30T17:25:00;98520;;;23.0;53.2
44075;BME280;60448;44.956;7.660;2023-04-30T17:30:00;98520;;;23.0;53.2
44075;BME280;60448;44.956;7.660;2023-04-30T17:35:00;98520;;;23.0;53.2
44075;BME280;60448;44.956;7.660;2023-04-30T17:40:00;98520;;;23.0;53.0
44075;BME280;60448;44.956;7.660;2023-04-30T17:45:00;98520;;;23.0;53.0
44075;BME280;60448;44.956;7.660;2023-04-30T17:50:00;98520;;;23.0;53.0
44075;BME280;60448;44.956;7.660;2023-04-30T17:55:00;98530;;;22.9;53.1
44075;BME280;60448;44.956;7.660;2023-04-30T18:00:00;98530;;;22.9;53.1
44075;BME280;60448;44.956;7.660;2023-04-30T18:05:00;98530;;;22.9;53.1
44075;BME280;60448;44.956;7.660;2023-04-30T18:10:00;98550;;;23.0;53.0
44075;BME280;60448;44.956;7.660;2023-04-30T18:15:00;98550;;;23.0;53.0
44075;BME280;60448;44.956;7.660;2023-04-30T18:20:00;98550;;;23.0;53.0
44075;BME280;60448;44.956;7.660;2023-04-30T18:25:00;98550;;;23.0;53.0
44075;BME280;60448;44.956;7.660;2023-04-30T18:30:00;98550;;;22.9;53.0
44075;BME280;60448;44.956;7.660;2023-04-30T18:35:00;98550;;;22.9;53.0
44075;BME280;60448;44.956;7.660;2023-04-30T18:40:00;98550;;;22.9;53.0
44075;BME280;60448;44.956;7.660;2023-04-30T18:45:00;98560;;;22.8;53.1
44075;BME280;60448;44.956;7.660;2023-04-30T18:50:00;98560;;;22.8;53.1
44075;BME280;60448;44.956;7.660;2023-04-30T18:55:00;98560;;;22.8;53.1
44075;BME280;60448;44.956;7.660;2023-04-30T19:00:00;98560;;;22.6;53.3
44075;BME280;60448;44.956;7.660;2023-04-30T19:05:00;98560;;;22.6;53.3
44075;BME280;60448;44.956;7.660;2023-04-30T19:10:00;98560;;;22.6;53.3
44075;BME280;60448;44.956;7.660;2023-04-30T19:15:00;98560;;;22.5;53.5
44075;BME280;60448;44.956;7.660;2023-04-30T19:20:00;98560;;;22.5;53.5
44075;BME280;60448;44.956;7.660;2023-04-30T19:25:00;98560;;;22.5;53.5
44075;BME280;60448;44.956;7.660;2023-04-30T19:30:00;98580;;;22.5;53.4
44075;BME280;60448;44.956;7.660;2023-04-30T19:35:00;98580;;;22.5;53.4
44075;BME280;60448;44.956;7.660;2023-04-30T19:40:00;98580;;;22.5;53.4
44075;BME280;60448;44.956;7.660;2023-04-30T19:45:00;98600;;;22.5;53.4
44075;BME280;60448;44.956;7.660;2023-04-30T19:50:00;98610;;;22.5;53.5
44075;BME280;60448;44.956;7.660;2023-04-30T19:55:00;98610;;;22.5;53.5
44075;BME280;60448;44.956;7.660;2023-04-30T20:00:01;98610;;;22.5;53.5
44075;BME280;60448;44.956;7.660;2023-04-30T20:05:00;98610;;;22.5;53.5
44075;BME280;60448;44.956;7.660;2023-04-30T20:10:00;98610;;;22.5;53.5
44075;BME280;60448;44.956;7.660;2023-04-30T20:15:00;98610;;;22.5;53.5
44075;BME280;60448;44.956;7.660;2023-04-30T20:20:00;98620;;;22.4;53.4
44075;BME280;60448;44.956;7.660;2023-04-30T20:25:00;98620;;;22.4;53.4
44075;BME280;60448;44.956;7.660;2023-04-30T20:30:00;98620;;;22.4;53.4
44075;BME280;60448;44.956;7.660;2023-04-30T20:35:00;98640;;;22.4;53.5
44075;BME280;60448;44.956;7.660;2023-04-30T20:40:00;98640;;;22.4;53.5
44075;BME280;60448;44.956;7.660;2023-04-30T20:45:00;98640;;;22.4;53.5
44075;BME280;60448;44.956;7.660;2023-04-30T20:50:00;98640;;;22.4;53.5
44075;BME280;60448;44.956;7.660;2023-04-30T20:55:00;98640;;;22.4;53.5
44075;BME280;60448;44.956;7.660;2023-04-30T21:00:00;98640;;;22.4;53.5
44075;BME280;60448;44.956;7.660;2023-04-30T21:05:00;98650;;;22.4;53.5
44075;BME280;60448;44.956;7.660;2023-04-30T21:10:01;98650;;;22.4;53.5
44075;BME280;60448;44.956;7.660;2023-04-30T21:15:00;98650;;;22.4;53.5
44075;BME280;60448;44.956;7.660;2023-04-30T21:20:00;98650;;;22.3;53.6
44075;BME280;60448;44.956;7.660;2023-04-30T21:25:00;98650;;;22.3;53.6
44075;BME280;60448;44.956;7.660;2023-04-30T21:30:00;98650;;;22.3;53.6
44075;BME280;60448;44.956;7.660;2023-04-30T21:35:00;98660;;;22.3;53.6
44075;BME280;60448;44.956;7.660;2023-04-30T21:40:00;98660;;;22.3;53.6
44075;BME280;60448;44.956;7.660;2023-04-30T21:45:00;98660;;;22.3;53.6
44075;BME280;60448;44.956;7.660;2023-04-30T21:50:00;98670;;;22.3;53.6
44075;BME280;60448;44.956;7.660;2023-04-30T21:55:00;98670;;;22.3;53.7
44075;BME280;60448;44.956;7.660;2023-04-30T22:00:01;98670;;;22.3;53.7
44075;BME280;60448;44.956;7.660;2023-04-30T22:05:00;98670;;;22.3;53.7
44075;BME280;60448;44.956;7.660;2023-04-30T22:10:00;98660;;;22.3;53.6
44075;BME280;60448;44.956;7.660;2023-04-30T22:15:00;98660;;;22.3;53.6
44075;BME280;60448;44.956;7.660;2023-04-30T22:20:00;98660;;;22.3;53.6
44075;BME280;60448;44.956;7.660;2023-04-30T22:25:00;98670;;;22.2;53.7
44075;BME280;60448;44.956;7.660;2023-04-30T22:30:00;98670;;;22.2;53.7
44075;BME280;60448;44.956;7.660;2023-04-30T22:35:00;98670;;;22.2;53.7
44075;BME280;60448;44.956;7.660;2023-04-30T22:40:00;98660;;;22.2;53.8
44075;BME280;60448;44.956;7.660;2023-04-30T22:45:00;98660;;;22.2;53.8
44075;BME280;60448;44.956;7.660;2023-04-30T22:50:00;98660;;;22.2;53.8
44075;BME280;60448;44.956;7.660;2023-04-30T22:55:00;98660;;;22.2;53.8
44075;BME280;60448;44.956;7.660;2023-04-30T23:00:00;98660;;;22.2;53.8
44075;BME280;60448;44.956;7.660;2023-04-30T23:05:00;98660;;;22.2;53.8
44075;BME280;60448;44.956;7.660;2023-04-30T23:10:00;98660;;;22.2;53.8
44075;BME280;60448;44.956;7.660;2023-04-30T23:15:00;98660;;;22.2;53.8
44075;BME280;60448;44.956;7.660;2023-04-30T23:20:00;98660;;;22.2;53.8
44075;BME280;60448;44.956;7.660;2023-04-30T23:25:00;98660;;;22.2;53.8
44075;BME280;60448;44.956;7.660;2023-04-30T23:30:00;98660;;;22.2;53.8
44075;BME280;60448;44.956;7.660;2023-04-30T23:35:00;98660;;;22.2;53.8
44075;BME280;60448;44.956;7.660;2023-04-30T23:40:00;98660;;;22.2;53.8
44075;BME280;60448;44.956;7.660;2023-04-30T23:45:00;98660;;;22.2;53.8
44075;BME280;60448;44.956;7.660;2023-04-30T23:50:01;98660;;;22.2;53.8
44075;BME280;60448;44.956;7.660;2023-04-30T23:55:00;98660;;;22.2;53.8
